createdAt,value
2018-11-23T00:01:11.049Z,14.30
2018-11-23T00:03:39.173Z,15.53
2018-11-23T00:06:07.289Z,13.87
2018-11-23T00:08:35.433Z,14.50
2018-11-23T00:11:03.605Z,13.10
2018-11-23T00:13:31.729Z,13.60
2018-11-23T00:15:59.849Z,13.80
2018-11-23T00:18:27.968Z,13.13
2018-11-23T00:20:56.081Z,12.90
2018-11-23T00:23:24.229Z,12.93
2018-11-23T00:25:52.387Z,13.37
2018-11-23T00:28:20.514Z,13.40
2018-11-23T00:30:48.633Z,13.60
2018-11-23T00:33:16.737Z,13.40
2018-11-23T00:35:44.857Z,13.83
2018-11-23T00:38:12.983Z,14.33
2018-11-23T00:40:41.117Z,13.43
2018-11-23T00:43:09.237Z,14.57
2018-11-23T00:45:42.777Z,14.20
2018-11-23T00:48:05.505Z,13.20
2018-11-23T00:50:33.637Z,13.57
2018-11-23T00:53:01.802Z,14.53
2018-11-23T00:55:30.343Z,14.20
2018-11-23T00:57:58.487Z,15.00
2018-11-23T01:00:28.669Z,13.80
2018-11-23T01:02:57.648Z,14.10
2018-11-23T01:05:25.766Z,13.33
2018-11-23T01:07:54.026Z,12.80
2018-11-23T01:10:23.269Z,12.53
2018-11-23T01:12:52.561Z,13.07
2018-11-23T01:15:20.697Z,13.63
2018-11-23T01:17:48.853Z,12.87
2018-11-23T01:20:19.448Z,13.17
2018-11-23T01:22:48.038Z,12.60
2018-11-23T01:25:17.126Z,13.27
2018-11-23T01:27:46.342Z,12.57
2018-11-23T01:30:19.893Z,12.90
2018-11-23T01:32:48.017Z,14.10
2018-11-23T01:35:16.219Z,12.90
2018-11-23T01:37:44.462Z,12.73
2018-11-23T01:40:15.074Z,12.73
2018-11-23T01:42:43.189Z,12.53
2018-11-23T01:45:11.846Z,13.57
2018-11-23T01:47:39.969Z,11.80
2018-11-23T01:50:14.245Z,12.43
2018-11-23T01:52:43.097Z,11.43
2018-11-23T01:55:12.207Z,12.87
2018-11-23T01:57:41.101Z,12.60
2018-11-23T02:00:11.540Z,13.67
2018-11-23T02:02:39.730Z,13.37
2018-11-23T02:05:08.600Z,12.50
2018-11-23T02:07:37.201Z,12.60
2018-11-23T02:10:05.873Z,12.57
2018-11-23T02:12:34.235Z,13.30
2018-11-23T02:15:02.365Z,13.60
2018-11-23T02:17:30.581Z,13.67
2018-11-23T02:19:58.751Z,13.13
2018-11-23T02:22:27.762Z,13.93
2018-11-23T02:24:55.920Z,13.43
2018-11-23T02:27:24.429Z,12.53
2018-11-23T02:29:52.705Z,13.70
2018-11-23T02:32:20.841Z,13.20
2018-11-23T02:34:48.986Z,13.70
2018-11-23T02:37:17.219Z,14.37
2018-11-23T02:39:45.361Z,13.40
2018-11-23T02:42:13.551Z,14.80
2018-11-23T02:44:41.712Z,14.70
2018-11-23T02:47:09.885Z,14.30
2018-11-23T02:49:38.385Z,13.73
2018-11-23T02:52:06.546Z,14.10
2018-11-23T02:54:34.792Z,14.70
2018-11-23T02:57:02.966Z,13.10
2018-11-23T02:59:31.113Z,14.57
2018-11-23T03:01:59.265Z,14.93
2018-11-23T03:04:27.442Z,13.97
2018-11-23T03:06:55.640Z,14.10
2018-11-23T03:09:23.777Z,13.77
2018-11-23T03:11:51.955Z,13.70
2018-11-23T03:14:20.126Z,14.40
2018-11-23T03:16:48.313Z,14.43
2018-11-23T03:19:16.977Z,13.90
2018-11-23T03:21:45.172Z,14.17
2018-11-23T03:24:13.325Z,13.67
2018-11-23T03:26:41.505Z,14.20
2018-11-23T03:29:09.641Z,14.00
2018-11-23T03:31:37.798Z,12.77
2018-11-23T03:34:06.754Z,13.80
2018-11-23T03:36:34.877Z,13.83
2018-11-23T03:39:03.123Z,12.93
2018-11-23T03:41:31.237Z,13.50
2018-11-23T03:43:59.387Z,14.83
2018-11-23T03:46:27.548Z,14.40
2018-11-23T03:48:55.655Z,14.50
2018-11-23T03:51:23.795Z,14.03
2018-11-23T03:53:51.969Z,13.13
2018-11-23T03:56:20.101Z,14.23
2018-11-23T03:58:48.238Z,14.60
2018-11-23T04:01:16.361Z,15.17
2018-11-23T04:03:44.517Z,15.80
2018-11-23T04:06:12.626Z,14.20
2018-11-23T04:08:40.769Z,15.27
2018-11-23T04:11:08.925Z,15.30
2018-11-23T04:13:37.029Z,14.60
2018-11-23T04:16:05.230Z,15.73
2018-11-23T04:18:33.382Z,16.47
2018-11-23T04:21:02.570Z,15.53
2018-11-23T04:23:31.993Z,13.83
2018-11-23T04:26:00.201Z,13.97
2018-11-23T04:28:28.341Z,14.80
2018-11-23T04:30:56.597Z,14.30
2018-11-23T04:33:25.166Z,16.00
2018-11-23T04:35:53.321Z,15.20
2018-11-23T04:38:21.615Z,13.60
2018-11-23T04:40:49.773Z,14.00
2018-11-23T04:43:17.930Z,13.00
2018-11-23T04:45:46.066Z,14.03
2018-11-23T04:48:14.253Z,14.03
2018-11-23T04:50:42.371Z,13.07
2018-11-23T04:53:10.496Z,14.10
2018-11-23T04:55:39.725Z,13.23
2018-11-23T04:58:07.879Z,15.90
2018-11-23T05:00:36.049Z,17.97
2018-11-23T05:03:04.191Z,13.87
2018-11-23T05:05:32.338Z,15.60
2018-11-23T05:08:00.469Z,14.20
2018-11-23T05:10:28.599Z,14.77
2018-11-23T05:12:56.721Z,14.70
2018-11-23T05:15:24.847Z,15.50
2018-11-23T05:17:53.046Z,16.70
2018-11-23T05:20:21.201Z,14.77
2018-11-23T05:22:49.369Z,14.07
2018-11-23T05:25:18.459Z,15.30
2018-11-23T05:27:47.134Z,15.83
2018-11-23T05:30:17.562Z,15.00
2018-11-23T05:32:46.292Z,15.40
2018-11-23T05:35:15.337Z,16.07
2018-11-23T05:37:43.493Z,16.10
2018-11-23T05:40:13.630Z,15.40
2018-11-23T05:42:42.332Z,16.33
2018-11-23T05:45:12.869Z,15.40
2018-11-23T05:47:41.005Z,16.53
2018-11-23T05:50:13.546Z,17.43
2018-11-23T05:52:42.409Z,15.70
2018-11-23T05:55:10.965Z,16.40
2018-11-23T05:57:39.157Z,17.03
2018-11-23T06:00:10.801Z,16.73
2018-11-23T06:02:38.953Z,14.70
2018-11-23T06:05:07.757Z,16.17
2018-11-23T06:07:36.084Z,16.40
2018-11-23T06:10:04.984Z,15.87
2018-11-23T06:12:33.198Z,14.53
2018-11-23T06:15:01.385Z,15.53
2018-11-23T06:17:29.525Z,16.50
2018-11-23T06:19:57.678Z,14.97
2018-11-23T06:22:25.836Z,16.13
2018-11-23T06:24:53.973Z,15.60
2018-11-23T06:27:22.153Z,13.97
2018-11-23T06:29:50.407Z,15.67
2018-11-23T06:32:30.681Z,15.10
2018-11-23T06:34:58.817Z,15.47
2018-11-23T06:37:27.025Z,14.30
2018-11-23T06:39:55.253Z,15.70
2018-11-23T06:42:23.406Z,15.83
2018-11-23T06:44:51.534Z,15.83
2018-11-23T06:47:19.694Z,15.60
2018-11-23T06:49:47.869Z,16.17
2018-11-23T06:52:16.093Z,15.80
2018-11-23T06:54:44.273Z,15.50
2018-11-23T06:57:12.405Z,15.03
2018-11-23T06:59:40.633Z,16.00
2018-11-23T07:02:08.765Z,15.07
2018-11-23T07:04:36.954Z,15.50
2018-11-23T07:07:05.233Z,15.13
2018-11-23T07:09:33.393Z,15.07
2018-11-23T07:12:01.532Z,15.70
2018-11-23T07:14:29.678Z,16.13
2018-11-23T07:16:57.806Z,16.43
2018-11-23T07:19:26.290Z,14.93
2018-11-23T07:21:54.430Z,16.77
2018-11-23T07:24:22.578Z,14.83
2018-11-23T07:26:50.710Z,17.10
2018-11-23T07:29:18.884Z,16.10
2018-11-23T07:31:47.068Z,15.73
2018-11-23T07:34:15.257Z,16.43
2018-11-23T07:36:43.426Z,15.67
2018-11-23T07:39:22.937Z,17.47
2018-11-23T07:42:02.529Z,15.50
2018-11-23T07:44:30.709Z,15.67
2018-11-23T07:46:58.837Z,15.33
2018-11-23T07:49:26.973Z,17.90
2018-11-23T07:51:55.177Z,17.17
2018-11-23T07:54:23.333Z,16.60
2018-11-23T07:56:51.490Z,16.33
2018-11-23T07:59:19.623Z,15.77
2018-11-23T08:01:48.338Z,16.60
2018-11-23T08:04:16.450Z,16.97
2018-11-23T08:06:44.594Z,16.97
2018-11-23T08:09:12.717Z,16.80
2018-11-23T08:11:40.866Z,17.73
2018-11-23T08:14:09.127Z,16.63
2018-11-23T08:16:37.299Z,18.47
2018-11-23T08:19:05.478Z,16.17
2018-11-23T08:21:33.792Z,19.53
2018-11-23T08:24:02.851Z,18.27
2018-11-23T08:26:30.996Z,18.10
2018-11-23T08:28:59.741Z,18.43
2018-11-23T08:31:27.951Z,17.60
2018-11-23T08:33:56.174Z,17.07
2018-11-23T08:36:24.315Z,17.13
2018-11-23T08:38:52.442Z,17.20
2018-11-23T08:41:20.561Z,16.50
2018-11-23T08:43:48.746Z,16.80
2018-11-23T08:46:16.924Z,17.07
2018-11-23T08:48:45.053Z,17.00
2018-11-23T08:51:13.485Z,17.10
2018-11-23T08:53:41.613Z,16.50
2018-11-23T08:56:09.786Z,17.23
2018-11-23T08:58:37.969Z,16.83
2018-11-23T09:01:06.134Z,17.17
2018-11-23T09:03:34.319Z,16.87
2018-11-23T09:06:02.793Z,19.57
2018-11-23T09:08:30.973Z,17.73
2018-11-23T09:10:59.153Z,17.10
2018-11-23T09:13:27.310Z,17.53
2018-11-23T09:15:55.478Z,17.80
2018-11-23T09:18:23.627Z,17.30
2018-11-23T09:20:51.785Z,16.63
2018-11-23T09:23:19.938Z,18.80
2018-11-23T09:25:48.034Z,18.30
2018-11-23T09:28:16.179Z,19.13
2018-11-23T09:30:44.405Z,20.43
2018-11-23T09:33:12.558Z,18.37
2018-11-23T09:35:40.690Z,18.57
2018-11-23T09:38:08.913Z,17.57
2018-11-23T09:40:42.970Z,17.90
2018-11-23T09:43:14.221Z,19.03
2018-11-23T09:45:42.355Z,20.80
2018-11-23T09:48:10.554Z,19.13
2018-11-23T09:50:38.681Z,19.10
2018-11-23T09:53:06.905Z,20.33
2018-11-23T09:55:36.157Z,20.73
2018-11-23T09:58:04.322Z,21.90
2018-11-23T10:00:34.867Z,21.30
2018-11-23T10:03:02.613Z,23.27
2018-11-23T10:05:31.538Z,22.27
2018-11-23T10:08:01.130Z,21.90
2018-11-23T10:10:29.685Z,21.23
2018-11-23T10:12:57.849Z,19.13
2018-11-23T10:15:27.186Z,19.07
2018-11-23T10:17:55.366Z,19.03
2018-11-23T10:20:24.994Z,19.57
2018-11-23T10:22:53.277Z,20.63
2018-11-23T10:25:22.739Z,22.37
2018-11-23T10:27:51.329Z,20.17
2018-11-23T10:30:22.753Z,22.33
2018-11-23T10:32:52.077Z,20.70
2018-11-23T10:35:20.218Z,20.23
2018-11-23T10:37:50.899Z,20.80
2018-11-23T10:40:21.398Z,21.30
2018-11-23T10:42:49.646Z,20.20
2018-11-23T10:45:19.905Z,19.17
2018-11-23T10:47:48.526Z,18.13
2018-11-23T10:50:19.007Z,21.57
2018-11-23T10:52:47.217Z,20.23
2018-11-23T10:55:17.441Z,20.40
2018-11-23T10:57:45.848Z,22.27
2018-11-23T11:00:20.534Z,21.77
2018-11-23T11:02:54.618Z,24.60
2018-11-23T11:05:28.157Z,25.40
2018-11-23T11:07:57.765Z,26.47
2018-11-23T11:10:29.074Z,24.90
2018-11-23T11:12:57.286Z,28.63
2018-11-23T11:15:25.486Z,27.80
2018-11-23T11:17:53.673Z,27.07
2018-11-23T11:20:21.882Z,30.70
2018-11-23T11:22:50.226Z,29.97
2018-11-23T11:25:18.377Z,27.73
2018-11-23T11:27:46.674Z,29.23
2018-11-23T11:30:16.306Z,28.23
2018-11-23T11:32:45.094Z,27.23
2018-11-23T11:35:13.601Z,27.70
2018-11-23T11:37:42.281Z,27.03
2018-11-23T11:40:12.297Z,26.40
2018-11-23T11:42:40.993Z,27.80
2018-11-23T11:45:12.155Z,26.80
2018-11-23T11:47:40.540Z,27.97
2018-11-23T11:50:10.030Z,26.50
2018-11-23T11:52:39.669Z,25.33
2018-11-23T11:55:09.337Z,25.87
2018-11-23T11:57:37.529Z,24.90
2018-11-23T12:00:07.950Z,25.57
2018-11-23T12:02:36.193Z,28.70
2018-11-23T12:05:05.045Z,26.70
2018-11-23T12:07:33.173Z,27.70
2018-11-23T12:10:06.474Z,24.57
2018-11-23T12:12:34.669Z,27.40
2018-11-23T12:15:02.786Z,27.40
2018-11-23T12:17:30.906Z,26.60
2018-11-23T12:19:59.067Z,26.90
2018-11-23T12:22:27.193Z,26.63
2018-11-23T12:24:55.586Z,27.57
2018-11-23T12:27:23.717Z,28.33
2018-11-23T12:29:51.924Z,28.73
2018-11-23T12:32:20.029Z,30.10
2018-11-23T12:34:48.167Z,28.07
2018-11-23T12:37:16.393Z,26.60
2018-11-23T12:39:44.577Z,27.40
2018-11-23T12:42:12.753Z,29.73
2018-11-23T12:44:40.941Z,29.70
2018-11-23T12:47:09.164Z,29.63
2018-11-23T12:49:37.350Z,28.07
2018-11-23T12:52:05.561Z,31.37
2018-11-23T12:54:33.750Z,31.87
2018-11-23T12:57:01.995Z,29.40
2018-11-23T12:59:30.169Z,29.93
2018-11-23T13:01:58.369Z,27.87
2018-11-23T13:04:26.506Z,29.87
2018-11-23T13:06:54.878Z,28.30
2018-11-23T13:09:23.021Z,28.80
2018-11-23T13:11:51.189Z,27.47
2018-11-23T13:14:19.408Z,25.40
2018-11-23T13:16:47.545Z,25.80
2018-11-23T13:19:15.758Z,26.30
2018-11-23T13:21:45.114Z,27.33
2018-11-23T13:24:13.284Z,27.47
2018-11-23T13:26:41.465Z,26.60
2018-11-23T13:29:16.025Z,27.97
2018-11-23T13:31:37.830Z,23.13
2018-11-23T13:34:06.585Z,27.73
2018-11-23T13:36:34.766Z,23.93
2018-11-23T13:39:03.042Z,24.10
2018-11-23T13:41:31.262Z,27.27
2018-11-23T13:43:59.422Z,25.13
2018-11-23T13:46:27.581Z,24.70
2018-11-23T13:48:55.760Z,26.17
2018-11-23T13:51:23.941Z,24.17
2018-11-23T13:53:52.197Z,22.77
2018-11-23T13:56:20.428Z,24.07
2018-11-23T13:58:48.597Z,24.80
2018-11-23T14:01:16.790Z,24.00
2018-11-23T14:03:44.950Z,24.00
2018-11-23T14:06:13.125Z,27.53
2018-11-23T14:08:41.292Z,29.10
2018-11-23T14:11:09.487Z,29.53
2018-11-23T14:13:37.649Z,31.30
2018-11-23T14:16:06.293Z,32.03
2018-11-23T14:18:34.450Z,25.80
2018-11-23T14:21:02.661Z,32.10
2018-11-23T14:23:30.841Z,33.27
2018-11-23T14:42:27.329Z,32.37
2018-11-23T14:44:55.650Z,34.23
2018-11-23T14:47:24.077Z,34.73
2018-11-23T14:51:16.931Z,33.60
2018-11-23T14:53:47.953Z,33.53
2018-11-23T14:58:35.921Z,32.63
2018-11-23T15:01:04.143Z,36.07
2018-11-23T15:03:32.319Z,48.10
2018-11-23T15:06:00.494Z,51.80
2018-11-23T15:08:29.224Z,56.97
2018-11-23T15:10:57.377Z,53.63
2018-11-23T15:13:25.539Z,74.97
2018-11-23T15:15:53.730Z,65.43
2018-11-23T15:18:21.886Z,60.93
2018-11-23T15:20:50.059Z,71.37
2018-11-23T15:23:19.518Z,61.03
2018-11-23T15:25:48.725Z,70.00
2018-11-23T15:28:16.917Z,80.23
2018-11-23T15:30:45.781Z,76.17
2018-11-23T15:33:15.434Z,77.00
2018-11-23T15:35:43.933Z,67.67
2018-11-23T15:38:13.849Z,73.97
2018-11-23T15:40:41.995Z,76.03
2018-11-23T15:43:11.776Z,63.43
2018-11-23T15:45:39.901Z,55.20
2018-11-23T15:48:08.645Z,48.10
2018-11-23T15:50:38.041Z,64.50
2018-11-23T15:53:09.477Z,47.13
2018-11-23T15:55:38.622Z,48.83
2018-11-23T15:58:08.405Z,55.10
2018-11-23T16:00:38.089Z,41.03
2018-11-23T16:03:08.537Z,49.47
2018-11-23T16:05:36.699Z,48.53
2018-11-23T16:08:07.662Z,38.43
2018-11-23T16:10:38.466Z,30.67
2018-11-23T16:13:16.913Z,39.03
2018-11-23T16:15:46.138Z,30.57
2018-11-23T16:18:24.636Z,31.60
2018-11-23T16:20:54.101Z,31.03
2018-11-23T16:23:23.317Z,33.27
2018-11-23T16:25:52.193Z,34.50
2018-11-23T16:28:21.519Z,30.27
2018-11-23T16:30:52.110Z,28.10
2018-11-23T16:33:21.603Z,28.70
2018-11-23T16:35:49.825Z,28.73
2018-11-23T16:38:19.437Z,27.50
2018-11-23T16:40:49.169Z,24.37
2018-11-23T16:43:17.426Z,24.03
2018-11-23T16:45:46.937Z,27.77
2018-11-23T16:48:15.717Z,26.97
2018-11-23T16:50:44.513Z,27.83
2018-11-23T16:53:12.706Z,29.70
2018-11-23T16:55:40.861Z,24.37
2018-11-23T16:58:10.827Z,23.93
2018-11-23T17:00:39.863Z,29.50
2018-11-23T17:03:10.179Z,29.03
2018-11-23T17:05:41.146Z,24.87
2018-11-23T17:08:09.582Z,24.00
2018-11-23T17:10:37.720Z,24.40
2018-11-23T17:13:05.873Z,26.20
2018-11-23T17:15:33.986Z,23.93
2018-11-23T17:18:02.096Z,23.00
2018-11-23T17:20:31.486Z,23.90
2018-11-23T17:23:00.873Z,23.40
2018-11-23T17:25:29.941Z,21.70
2018-11-23T17:27:59.306Z,19.47
2018-11-23T17:30:28.685Z,18.57
2018-11-23T17:32:56.993Z,18.65
2018-11-23T17:35:25.294Z,21.90
2018-11-23T17:37:53.438Z,21.67
2018-11-23T17:40:23.009Z,20.00
2018-11-23T17:42:51.203Z,20.00
2018-11-23T17:45:21.206Z,20.03
2018-11-23T17:47:49.801Z,20.23
2018-11-23T17:50:19.227Z,18.57
2018-11-23T17:52:47.873Z,17.07
2018-11-23T17:55:15.998Z,18.27
2018-11-23T17:57:44.841Z,16.57
2018-11-23T18:00:14.537Z,16.42
2018-11-23T18:02:43.243Z,16.80
2018-11-23T18:05:12.425Z,19.50
2018-11-23T18:07:40.573Z,20.20
2018-11-23T18:10:10.837Z,17.00
2018-11-23T18:12:38.964Z,15.60
2018-11-23T18:15:09.873Z,15.33
2018-11-23T18:17:38.003Z,17.50
2018-11-23T18:20:09.773Z,16.83
2018-11-23T18:22:38.050Z,14.37
2018-11-23T18:25:08.379Z,12.23
2018-11-23T18:27:36.538Z,12.70
2018-11-23T18:30:05.407Z,11.80
2018-11-23T18:32:33.545Z,12.50
2018-11-23T18:35:01.693Z,13.77
2018-11-23T18:37:29.853Z,15.23
2018-11-23T18:39:58.001Z,14.97
2018-11-23T18:42:26.134Z,15.18
2018-11-23T18:44:54.282Z,13.37
2018-11-23T18:47:22.434Z,13.05
2018-11-23T18:49:50.590Z,14.33
2018-11-23T18:52:18.725Z,17.20
2018-11-23T18:54:46.874Z,15.55
2018-11-23T18:57:15.029Z,16.30
2018-11-23T18:59:43.163Z,19.35
2018-11-23T19:02:11.301Z,17.10
2018-11-23T19:04:39.454Z,12.90
2018-11-23T19:07:08.618Z,11.93
2018-11-23T19:09:35.747Z,13.45
2018-11-23T19:12:03.885Z,13.08
2018-11-23T19:14:32.062Z,12.00
2018-11-23T19:17:00.194Z,11.63
2018-11-23T19:19:28.345Z,12.00
2018-11-23T19:21:56.492Z,12.35
2018-11-23T19:24:24.629Z,10.08
2018-11-23T19:26:52.778Z,11.57
2018-11-23T19:29:20.933Z,10.90
2018-11-23T19:31:49.049Z,11.03
2018-11-23T19:34:17.966Z,11.08
2018-11-23T19:36:46.081Z,10.93
2018-11-23T19:39:14.222Z,11.75
2018-11-23T19:41:42.324Z,10.75
2018-11-23T19:44:10.442Z,10.65
2018-11-23T19:46:38.565Z,13.03
2018-11-23T19:49:06.681Z,12.37
2018-11-23T19:51:34.789Z,11.80
2018-11-23T19:54:02.926Z,12.63
2018-11-23T19:56:31.041Z,11.05
2018-11-23T19:58:59.157Z,12.23
2018-11-23T20:01:27.267Z,11.73
2018-11-23T20:03:55.381Z,10.20
2018-11-23T20:06:23.492Z,9.63
2018-11-23T20:08:51.623Z,10.28
2018-11-23T20:11:19.724Z,9.43
2018-11-23T20:13:47.825Z,8.58
2018-11-23T20:16:15.929Z,9.13
2018-11-23T20:18:44.043Z,9.75
2018-11-23T20:21:12.137Z,7.37
2018-11-23T20:23:40.249Z,7.45
2018-11-23T20:26:08.346Z,8.80
2018-11-23T20:28:36.497Z,8.35
2018-11-23T20:31:04.965Z,9.45
2018-11-23T20:33:33.117Z,9.35
2018-11-23T20:36:01.274Z,8.58
2018-11-23T20:38:29.409Z,9.23
2018-11-23T20:40:57.533Z,9.15
2018-11-23T20:43:25.666Z,9.30
2018-11-23T20:45:53.809Z,8.58
2018-11-23T20:48:21.945Z,8.95
2018-11-23T20:50:50.097Z,10.30
2018-11-23T20:53:18.237Z,10.43
2018-11-23T20:55:46.385Z,9.25
2018-11-23T20:58:14.517Z,9.15
2018-11-23T21:00:42.665Z,9.65
2018-11-23T21:03:10.835Z,9.73
2018-11-23T21:05:38.990Z,9.70
2018-11-23T21:08:07.109Z,9.30
2018-11-23T21:10:35.885Z,9.98
2018-11-23T21:13:04.095Z,10.20
2018-11-23T21:15:32.339Z,10.58
2018-11-23T21:18:01.855Z,11.73
2018-11-23T21:20:29.919Z,10.25
2018-11-23T21:22:58.052Z,11.25
2018-11-23T21:25:26.216Z,9.78
2018-11-23T21:27:54.476Z,9.50
2018-11-23T21:30:23.418Z,9.68
2018-11-23T21:32:52.402Z,9.30
2018-11-23T21:35:20.556Z,12.55
2018-11-23T21:37:48.647Z,9.05
2018-11-23T21:40:16.921Z,7.10
2018-11-23T21:42:45.045Z,7.80
2018-11-23T21:45:17.162Z,8.80
2018-11-23T21:47:45.289Z,9.35
2018-11-23T21:50:16.238Z,8.95
2018-11-23T21:52:44.357Z,9.43
2018-11-23T21:55:14.780Z,8.80
2018-11-23T21:57:42.892Z,10.63
2018-11-23T22:00:12.255Z,8.48
2018-11-23T22:02:40.354Z,7.28
2018-11-23T22:05:08.676Z,5.95
2018-11-23T22:07:36.787Z,5.95
2018-11-23T22:10:23.390Z,6.65
2018-11-23T22:12:51.493Z,7.17
2018-11-23T22:15:20.761Z,7.70
2018-11-23T22:17:49.530Z,7.47
2018-11-23T22:20:18.950Z,7.75
2018-11-23T22:22:47.054Z,7.87
2018-11-23T22:25:16.214Z,7.35
2018-11-23T22:27:44.484Z,5.83
2018-11-23T22:30:20.045Z,6.67
2018-11-23T22:32:48.180Z,6.50
2018-11-23T22:35:16.329Z,6.65
2018-11-23T22:37:44.505Z,7.95
2018-11-23T22:40:14.568Z,7.30
2018-11-23T22:42:44.073Z,7.95
2018-11-23T22:45:12.992Z,7.20
2018-11-23T22:47:41.128Z,7.78
2018-11-23T22:50:11.561Z,8.55
2018-11-23T22:52:39.708Z,7.53
2018-11-23T22:55:09.242Z,7.08
2018-11-23T22:57:37.569Z,6.25
2018-11-23T23:00:22.772Z,7.40
2018-11-23T23:02:50.941Z,7.08
2018-11-23T23:05:22.341Z,7.90
2018-11-23T23:07:50.492Z,7.00
2018-11-23T23:10:18.662Z,7.55
2018-11-23T23:12:46.896Z,7.45
2018-11-23T23:15:15.038Z,7.15
2018-11-23T23:17:43.205Z,5.92
2018-11-23T23:20:13.306Z,6.08
2018-11-23T23:22:41.432Z,6.05
2018-11-23T23:25:10.697Z,7.12
2018-11-23T23:27:38.823Z,6.50
2018-11-23T23:30:10.301Z,6.97
2018-11-23T23:32:38.706Z,7.33
2018-11-23T23:35:07.875Z,7.10
2018-11-23T23:37:36.105Z,9.35
2018-11-23T23:40:06.369Z,8.30
2018-11-23T23:42:34.501Z,8.15
2018-11-23T23:45:02.638Z,7.75
2018-11-23T23:47:30.769Z,7.75
2018-11-23T23:49:58.902Z,8.15
2018-11-23T23:52:27.034Z,7.87
2018-11-23T23:54:55.153Z,8.25
2018-11-23T23:57:23.281Z,7.65
2018-11-23T23:59:51.405Z,6.80
